Cedar Springs, MI (49319)

5:41 PM EDT on May 29, 2015 (GMT -0400)
SE Cedar Springs | | Change Station
CLOSE
Current Station
Personal Weather Station
Location: Cedar Springs, MI
Elevation: 865 ft
Nearby Weather Stations

Elev 865 ft 43.19 °N, 85.51 °W | Updated 6 seconds ago

Overcast
Overcast
69.6 °F
Feels Like 69.6 °F
N
1.0
Wind Variable Wind from NNE
Gusts 2.0 mph

Today
High -- | Low -- °F
--% Chance of Precip.
Yesterday
High -- | Low -- °F
Precip. -- in
6:06 AM 9:12 PM
Waxing Gibbous, 86% visible
Pressure 30.00 in
Visibility 6.0 miles
Clouds Few 2200 ft
Scattered Clouds 4800 ft
Mostly Cloudy 11000 ft
Dew Point 68 °F
Humidity 96%
Rainfall 0.40 in
Snow Depth Not available.
UV 3 out of 12
Pollen 9.10 out of 12
Air Quality Not available.
Flu Activity Sporadic
SPECI KGRR 292121Z 23005KT 6SM -RA BR FEW022 SCT048 BKN110 22/21 A3000 RMK AO2 P0003 T02220206

More Conditions Fewer Conditions

Pressure 30.00 in
Visibility 6.0 miles
Clouds Few 2200 ft
Scattered Clouds 4800 ft
Mostly Cloudy 11000 ft
Dew Point 68 °F
Humidity 96%
Rainfall 0.40 in
Snow Depth Not available.
UV 3 out of 12
Pollen 9.10 out of 12
Air Quality Not available.
Flu Activity Sporadic
SPECI KGRR 292121Z 23005KT 6SM -RA BR FEW022 SCT048 BKN110 22/21 A3000 RMK AO2 P0003 T02220206

More Conditions Fewer Conditions

10-Day Weather Forecast

Almanac

Astronomy

May. 29, 2015 Rise Set
Actual Time
Civil Twilight
Nautical Twilight
Astronomical Twilight
Moon
Length of Visible Light
Length of Day
Tomorrow will be .
, % of the Moon is Illuminated

Today's Extremes

State Highs State Lows

Community

WunderPhotos

Upload Photos

1,825,372 photos uploaded!

WunderBlogs® & News

Nearby

Air Quality

  Air Quality AQ Index Pollutant
Not available.

Snow Depth

Station Depth Elevation

Earthquake Activity

City Distance Mag. Time & Date
Minimum magnitude displayed is 2.5.

Coastal Water Temperatures

Place Temperature

Stations

Nearby Weather Stations

Station Location Temp. Windchill Dew Point Humidity Wind Precip. Elev Updated Type